createdAt,value
2018-09-29T00:01:58.793Z,8.80
2018-09-29T00:07:02.122Z,8.87
2018-09-29T00:12:05.417Z,8.79
2018-09-29T00:17:08.844Z,8.76
2018-09-29T00:22:12.185Z,8.75
2018-09-29T00:27:15.479Z,8.71
2018-09-29T00:32:18.757Z,8.69
2018-09-29T00:37:22.169Z,8.74
2018-09-29T00:42:25.502Z,8.71
2018-09-29T00:47:28.810Z,8.66
2018-09-29T00:52:32.257Z,8.66
2018-09-29T00:57:35.589Z,8.63
2018-09-29T01:02:38.966Z,8.64
2018-09-29T01:07:42.348Z,8.63
2018-09-29T01:12:45.674Z,8.62
2018-09-29T01:17:49.040Z,8.60
2018-09-29T01:22:52.304Z,8.49
2018-09-29T01:27:55.780Z,8.41
2018-09-29T01:32:59.076Z,8.35
2018-09-29T01:38:02.504Z,8.28
2018-09-29T01:43:05.916Z,8.22
2018-09-29T01:48:09.263Z,8.17
2018-09-29T01:53:12.563Z,8.13
2018-09-29T01:58:15.893Z,8.08
2018-09-29T02:03:19.325Z,7.98
2018-09-29T02:08:22.715Z,7.89
2018-09-29T02:13:26.102Z,7.83
2018-09-29T02:18:29.755Z,7.78
2018-09-29T02:23:33.162Z,7.78
2018-09-29T02:28:36.535Z,7.73
2018-09-29T02:33:39.860Z,7.66
2018-09-29T02:38:43.165Z,7.60
2018-09-29T02:43:46.476Z,7.56
2018-09-29T02:48:49.889Z,7.49
2018-09-29T02:53:53.220Z,7.47
2018-09-29T02:58:56.557Z,7.41
2018-09-29T03:03:59.884Z,7.33
2018-09-29T03:09:03.712Z,7.27
2018-09-29T03:14:07.010Z,7.21
2018-09-29T03:19:10.328Z,7.18
2018-09-29T03:24:13.633Z,7.13
2018-09-29T03:29:16.966Z,7.11
2018-09-29T03:34:20.317Z,7.08
2018-09-29T03:39:23.664Z,7.06
2018-09-29T03:44:27.052Z,7.01
2018-09-29T03:49:30.351Z,7.03
2018-09-29T03:54:33.669Z,6.98
2018-09-29T03:59:37.040Z,6.92
2018-09-29T04:04:40.380Z,6.88
2018-09-29T04:09:43.719Z,6.82
2018-09-29T04:14:47.174Z,6.69
2018-09-29T04:19:50.540Z,6.63
2018-09-29T04:24:53.828Z,6.58
2018-09-29T04:29:57.135Z,6.63
2018-09-29T04:35:00.461Z,6.60
2018-09-29T04:40:03.950Z,6.55
2018-09-29T04:45:07.282Z,6.50
2018-09-29T04:50:10.640Z,6.49
2018-09-29T04:55:13.941Z,6.41
2018-09-29T05:00:17.496Z,6.38
2018-09-29T05:05:20.817Z,6.41
2018-09-29T05:10:24.157Z,6.37
2018-09-29T05:15:27.520Z,6.35
2018-09-29T05:20:30.880Z,6.32
2018-09-29T05:25:34.201Z,6.25
2018-09-29T05:30:37.608Z,6.25
2018-09-29T05:35:40.944Z,6.35
2018-09-29T05:40:44.416Z,6.39
2018-09-29T05:45:48.622Z,6.44
2018-09-29T05:50:52.033Z,6.46
2018-09-29T05:55:55.345Z,6.46
2018-09-29T06:00:58.655Z,6.47
2018-09-29T06:06:02.140Z,6.59
2018-09-29T06:11:05.526Z,6.81
2018-09-29T06:16:09.652Z,6.96
2018-09-29T06:21:12.977Z,7.10
2018-09-29T06:26:16.301Z,7.31
2018-09-29T06:31:19.668Z,7.43
2018-09-29T06:36:23.038Z,7.57
2018-09-29T06:41:26.398Z,7.67
2018-09-29T06:46:29.741Z,7.77
2018-09-29T06:51:33.298Z,7.93
2018-09-29T06:56:36.604Z,8.09
2018-09-29T07:01:39.921Z,8.14
2018-09-29T07:06:43.309Z,8.19
2018-09-29T07:11:46.628Z,8.30
2018-09-29T07:16:49.960Z,8.48
2018-09-29T07:21:53.459Z,8.52
2018-09-29T07:26:56.707Z,8.61
2018-09-29T07:32:00.029Z,8.75
2018-09-29T07:37:03.509Z,8.88
2018-09-29T07:42:07.141Z,8.91
2018-09-29T07:47:10.485Z,9.00
2018-09-29T07:52:13.800Z,9.09
2018-09-29T07:57:17.139Z,9.18
2018-09-29T08:02:20.473Z,9.29
2018-09-29T08:07:23.801Z,9.41
2018-09-29T08:12:27.191Z,9.51
2018-09-29T08:17:30.533Z,9.61
2018-09-29T08:22:33.841Z,9.71
2018-09-29T08:27:37.151Z,9.77
2018-09-29T08:32:40.473Z,9.86
2018-09-29T08:37:43.825Z,9.92
2018-09-29T08:42:47.124Z,10.00
2018-09-29T08:47:50.432Z,10.15
2018-09-29T08:52:53.736Z,10.32
2018-09-29T08:57:57.273Z,10.47
2018-09-29T09:03:00.624Z,10.47
2018-09-29T09:08:04.181Z,10.55
2018-09-29T09:13:07.463Z,10.65
2018-09-29T09:18:10.805Z,10.85
2018-09-29T09:23:14.128Z,10.60
2018-09-29T09:28:17.436Z,10.48
2018-09-29T09:33:20.776Z,10.69
2018-09-29T09:38:24.054Z,10.92
2018-09-29T09:43:27.371Z,11.14
2018-09-29T09:48:30.680Z,11.35
2018-09-29T09:53:34.042Z,11.45
2018-09-29T09:58:37.876Z,11.26
2018-09-29T10:03:41.193Z,11.06
2018-09-29T10:08:44.477Z,11.03
2018-09-29T10:13:48.064Z,11.08
2018-09-29T10:18:51.357Z,11.43
2018-09-29T10:23:54.665Z,12.11
2018-09-29T10:28:58.085Z,12.96
2018-09-29T10:34:01.353Z,13.48
2018-09-29T10:39:07.928Z,12.76
2018-09-29T10:44:11.928Z,12.32
2018-09-29T10:49:15.180Z,12.83
2018-09-29T10:54:18.499Z,13.19
2018-09-29T10:59:21.794Z,13.54
2018-09-29T11:04:25.287Z,14.05
2018-09-29T11:09:28.572Z,14.47
2018-09-29T11:14:31.957Z,15.31
2018-09-29T11:19:35.198Z,23.63
2018-09-29T11:24:38.480Z,29.39
2018-09-29T11:29:41.890Z,30.81
2018-09-29T11:34:45.178Z,31.02
2018-09-29T11:39:48.461Z,32.00
2018-09-29T11:44:51.894Z,30.48
2018-09-29T11:49:55.161Z,23.73
2018-09-29T11:54:58.443Z,18.88
2018-09-29T12:00:01.918Z,17.11
2018-09-29T12:05:05.424Z,16.86
2018-09-29T12:10:08.692Z,21.76
2018-09-29T12:15:12.053Z,30.71
2018-09-29T12:20:15.537Z,33.59
2018-09-29T12:25:18.824Z,35.84
2018-09-29T12:30:22.096Z,37.59
2018-09-29T12:35:25.372Z,36.82
2018-09-29T12:40:29.022Z,36.19
2018-09-29T12:45:32.300Z,37.81
2018-09-29T12:50:35.584Z,35.49
2018-09-29T12:55:38.873Z,27.84
2018-09-29T13:00:42.227Z,23.37
2018-09-29T13:05:45.518Z,21.25
2018-09-29T13:10:48.806Z,25.17
2018-09-29T13:15:52.548Z,21.10
2018-09-29T13:26:33.154Z,20.51
2018-09-29T13:31:36.436Z,20.36
2018-09-29T13:36:39.724Z,19.81
2018-09-29T13:41:43.024Z,22.68
2018-09-29T13:46:47.543Z,25.17
2018-09-29T13:51:50.827Z,24.38
2018-09-29T13:56:54.120Z,22.48
2018-09-29T14:07:06.988Z,21.44
2018-09-29T14:12:10.298Z,20.11
2018-09-29T14:17:13.581Z,19.03
2018-09-29T14:22:16.864Z,18.29
2018-09-29T14:27:20.157Z,17.67
2018-09-29T14:32:23.454Z,17.22
2018-09-29T14:37:26.784Z,16.85
2018-09-29T14:42:30.080Z,16.55
2018-09-29T14:47:33.382Z,16.27
2018-09-29T14:52:36.838Z,16.15
2018-09-29T14:57:40.132Z,16.11
2018-09-29T15:02:43.436Z,16.07
2018-09-29T15:07:46.747Z,15.94
2018-09-29T15:12:50.066Z,15.78
2018-09-29T15:17:53.392Z,15.79
2018-09-29T15:22:56.699Z,15.65
2018-09-29T15:28:00.054Z,15.63
2018-09-29T15:33:03.476Z,15.60
2018-09-29T15:38:06.752Z,15.48
2018-09-29T15:43:10.081Z,15.43
2018-09-29T15:48:13.401Z,15.37
2018-09-29T15:53:16.696Z,15.19
2018-09-29T15:58:20.013Z,15.06
2018-09-29T16:03:23.310Z,14.95
2018-09-29T16:08:26.614Z,14.93
2018-09-29T16:13:29.917Z,14.92
2018-09-29T16:18:33.323Z,14.98
2018-09-29T16:23:36.615Z,14.84
2018-09-29T16:28:39.896Z,14.69
2018-09-29T16:33:43.179Z,14.56
2018-09-29T16:38:46.479Z,14.46
2018-09-29T16:43:50.168Z,14.21
2018-09-29T16:48:53.495Z,13.94
2018-09-29T16:53:56.875Z,13.70
2018-09-29T16:59:00.198Z,13.50
2018-09-29T17:04:03.617Z,13.30
2018-09-29T17:09:09.429Z,13.14
2018-09-29T17:14:12.742Z,12.96
2018-09-29T17:19:16.117Z,12.80
2018-09-29T17:24:19.444Z,12.67
2018-09-29T17:29:22.764Z,12.57
2018-09-29T17:34:26.078Z,12.36
2018-09-29T17:39:29.400Z,12.23
2018-09-29T17:44:32.755Z,12.20
2018-09-29T17:49:36.160Z,12.07
2018-09-29T17:54:39.498Z,11.97
2018-09-29T17:59:42.809Z,11.90
2018-09-29T18:04:46.136Z,11.77
2018-09-29T18:09:49.469Z,11.70
2018-09-29T18:14:52.797Z,11.63
2018-09-29T18:19:56.116Z,11.47
2018-09-29T18:24:59.462Z,11.33
2018-09-29T18:30:03.254Z,11.22
2018-09-29T18:35:06.693Z,11.13
2018-09-29T18:40:10.066Z,11.00
2018-09-29T18:45:13.471Z,10.84
2018-09-29T18:50:16.849Z,10.80
2018-09-29T18:55:20.176Z,10.76
2018-09-29T19:00:23.496Z,10.69
2018-09-29T19:05:26.884Z,10.63
2018-09-29T19:10:30.951Z,10.52
2018-09-29T19:15:34.928Z,10.41
2018-09-29T19:20:39.055Z,10.30
2018-09-29T19:25:42.810Z,10.30
2018-09-29T19:30:46.535Z,10.28
2018-09-29T19:35:50.692Z,10.24
2018-09-29T20:03:33.166Z,9.89
2018-09-29T20:08:36.927Z,9.83
2018-09-29T20:13:40.297Z,9.80
2018-09-29T20:18:43.826Z,9.74
2018-09-29T20:23:47.187Z,9.64
2018-09-29T21:02:37.640Z,9.28
2018-09-29T21:07:41.045Z,9.22
2018-09-29T21:12:44.451Z,9.20
2018-09-29T21:17:47.781Z,9.19
2018-09-29T21:22:51.106Z,9.12
2018-09-29T21:27:54.573Z,9.06
2018-09-29T21:32:57.907Z,9.00
2018-09-29T21:38:01.276Z,8.95
2018-09-29T21:43:04.665Z,8.92
2018-09-29T21:48:08.021Z,8.89
2018-09-29T21:53:11.349Z,8.85
2018-09-29T21:58:14.852Z,8.82
2018-09-29T22:03:18.161Z,8.79
2018-09-29T22:08:21.467Z,8.76
2018-09-29T22:13:24.765Z,8.75
2018-09-29T22:18:28.080Z,8.70
2018-09-29T22:23:31.588Z,8.77
2018-09-29T22:28:34.924Z,8.88
2018-09-29T22:33:38.268Z,8.93
2018-09-29T22:38:41.618Z,8.94
2018-09-29T22:43:44.929Z,8.91
2018-09-29T22:48:48.331Z,8.93
2018-09-29T22:53:51.940Z,8.96
2018-09-29T22:58:55.237Z,8.93
2018-09-29T23:03:58.620Z,8.93
2018-09-29T23:09:02.509Z,8.92
2018-09-29T23:14:06.731Z,8.90
2018-09-29T23:19:11.255Z,8.86
2018-09-29T23:24:14.571Z,8.86
2018-09-29T23:29:17.864Z,8.82
2018-09-29T23:34:21.148Z,8.82
2018-09-29T23:39:24.659Z,8.80
2018-09-29T23:44:27.969Z,8.78
2018-09-29T23:49:31.441Z,8.69
2018-09-29T23:54:34.875Z,8.66
2018-09-29T23:59:38.505Z,8.65
